Time;durP1;ratioP1;P1;durP2;ratioP2;P2;SDS_P1;SDS_P2;PMS_P1;PMS_P2;Temp;Humidity;BMP_temperature;BMP_pressure;BME280_temperature;BME280_humidity;BME280_pressure;Samples;Min_cycle;Max_cycle;Signal;HPM_P1;HPM_P2
2022/07/10 00:02:09;;;;;;;12.55;11.35;;;;;;;16.17;100.00;94387.06;5072823;28;20205;-59
2022/07/10 00:04:34;;;;;;;12.32;11.02;;;;;;;16.16;100.00;94391.38;5073089;28;20192;-59
2022/07/10 00:07:01;;;;;;;14.88;11.32;;;;;;;16.14;100.00;94388.19;5072031;28;20741;-62
2022/07/10 00:09:28;;;;;;;15.18;11.52;;;;;;;16.14;100.00;94389.97;5072865;28;20613;-62
2022/07/10 00:11:53;;;;;;;13.40;11.43;;;;;;;16.20;100.00;94384.94;5072533;28;20300;-61
2022/07/10 00:14:20;;;;;;;15.90;10.65;;;;;;;16.18;100.00;94386.09;5072605;28;20276;-60
2022/07/10 00:16:45;;;;;;;12.82;11.52;;;;;;;16.16;100.00;94383.69;5072513;28;20722;-62
2022/07/10 00:19:11;;;;;;;11.55;10.45;;;;;;;16.10;100.00;94381.81;5072933;28;20204;-61
2022/07/10 00:21:36;;;;;;;16.00;11.20;;;;;;;16.13;100.00;94381.47;5072565;28;20208;-59
2022/07/10 00:24:02;;;;;;;11.30;10.27;;;;;;;16.09;100.00;94380.22;5072745;28;20185;-60
2022/07/10 00:26:27;;;;;;;12.40;11.13;;;;;;;16.12;100.00;94372.19;5072555;28;20591;-62
2022/07/10 00:28:53;;;;;;;12.10;10.80;;;;;;;16.09;100.00;94369.97;5072575;28;20250;-62
2022/07/10 00:31:19;;;;;;;12.90;11.55;;;;;;;16.08;100.00;94367.56;5072244;28;20713;-62
2022/07/10 00:33:44;;;;;;;13.32;11.82;;;;;;;16.08;100.00;94368.34;5072300;28;20667;-64
2022/07/10 00:36:10;;;;;;;14.02;11.80;;;;;;;16.08;100.00;94367.56;5053978;28;20553;-62
2022/07/10 00:38:35;;;;;;;12.77;11.35;;;;;;;16.03;100.00;94372.41;5072341;28;20201;-64
2022/07/10 00:41:00;;;;;;;13.10;11.63;;;;;;;16.04;100.00;94358.63;5072023;28;20177;-62
2022/07/10 00:43:26;;;;;;;16.55;11.85;;;;;;;15.93;100.00;94354.69;5072359;28;20212;-63
2022/07/10 00:45:51;;;;;;;13.65;12.18;;;;;;;15.91;100.00;94359.97;5072232;28;20263;-60
2022/07/10 00:48:23;;;;;;;14.02;11.40;;;;;;;15.80;100.00;94359.53;5072093;28;20221;-59
2022/07/10 00:50:48;;;;;;;12.98;11.43;;;;;;;15.81;100.00;94351.72;5072089;28;20185;-60
2022/07/10 00:53:14;;;;;;;13.10;11.57;;;;;;;15.78;100.00;94346.91;5072022;28;20582;-60
2022/07/10 00:55:41;;;;;;;14.40;12.07;;;;;;;15.82;100.00;94349.91;5072036;28;20180;-60
2022/07/10 00:58:10;;;;;;;13.45;11.63;;;;;;;15.79;100.00;94355.41;5071976;28;20255;-60
2022/07/10 01:00:39;;;;;;;13.32;12.02;;;;;;;15.80;100.00;94350.09;5072148;28;20646;-60
2022/07/10 01:03:04;;;;;;;12.10;10.75;;;;;;;15.77;100.00;94349.66;5071900;28;20215;-61
2022/07/10 01:05:30;;;;;;;14.75;12.48;;;;;;;15.79;100.00;94350.28;5071931;28;20697;-61
2022/07/10 01:07:55;;;;;;;12.55;11.35;;;;;;;15.74;100.00;94347.41;5071908;28;20220;-61
2022/07/10 01:10:21;;;;;;;12.45;11.13;;;;;;;15.70;100.00;94348.72;5071870;28;20210;-63
2022/07/10 01:12:47;;;;;;;12.60;11.45;;;;;;;15.69;100.00;94342.81;5052804;28;20212;-63
2022/07/10 01:15:12;;;;;;;14.57;11.98;;;;;;;15.71;100.00;94350.31;5070863;28;20176;-63
2022/07/10 01:17:38;;;;;;;14.05;11.10;;;;;;;15.73;100.00;94346.63;5071596;28;20674;-60
2022/07/10 01:20:07;;;;;;;12.50;11.10;;;;;;;15.69;100.00;94349.69;5053998;28;20185;-62
2022/07/10 01:22:34;;;;;;;12.70;10.98;;;;;;;15.72;100.00;94344.22;5071490;28;20346;-59
2022/07/10 01:24:59;;;;;;;12.57;11.38;;;;;;;15.71;100.00;94340.88;5071632;28;20212;-59
2022/07/10 01:27:25;;;;;;;12.25;10.88;;;;;;;15.70;100.00;94334.13;5071459;28;20789;-60
2022/07/10 01:29:52;;;;;;;12.93;11.18;;;;;;;15.74;100.00;94335.41;5071548;28;20192;-60
2022/07/10 01:32:18;;;;;;;14.00;11.25;;;;;;;15.74;100.00;94344.84;5071489;28;20295;-60
2022/07/10 01:34:43;;;;;;;12.15;10.13;;;;;;;15.72;100.00;94337.31;5071877;28;20618;-61
2022/07/10 01:37:09;;;;;;;11.70;10.55;;;;;;;15.72;100.00;94331.41;5037174;28;20208;-62
2022/07/10 01:39:34;;;;;;;12.15;10.98;;;;;;;15.70;100.00;94325.63;5053553;28;20188;-62
2022/07/10 01:42:00;;;;;;;11.23;10.18;;;;;;;15.65;100.00;94318.47;5071466;28;20224;-59
2022/07/10 01:44:26;;;;;;;12.30;11.10;;;;;;;15.61;100.00;94321.53;5071445;28;20604;-62
2022/07/10 01:46:51;;;;;;;12.40;10.60;;;;;;;15.64;100.00;94318.63;5071531;28;20606;-63
2022/07/10 01:49:17;;;;;;;12.05;10.85;;;;;;;15.67;100.00;94321.69;5053667;28;20218;-59
2022/07/10 01:51:43;;;;;;;12.07;10.50;;;;;;;15.64;100.00;94324.56;5071419;28;20588;-62
2022/07/10 01:54:08;;;;;;;11.82;10.52;;;;;;;15.56;100.00;94316.91;5071857;28;20201;-60
2022/07/10 01:56:34;;;;;;;11.65;10.57;;;;;;;15.56;100.00;94308.41;5053490;28;20205;-60
2022/07/10 01:59:01;;;;;;;14.32;12.30;;;;;;;15.52;100.00;94305.41;5071475;28;20188;-60
2022/07/10 02:01:27;;;;;;;13.88;11.00;;;;;;;15.53;100.00;94311.34;5071290;28;20245;-62
2022/07/10 02:06:37;;;;;;;10.98;9.95;;;;;;;15.50;100.00;94316.78;5071512;28;20693;-62
2022/07/10 02:09:02;;;;;;;12.02;10.82;;;;;;;15.49;100.00;94308.31;5053473;28;20196;-62
2022/07/10 02:11:28;;;;;;;11.40;10.30;;;;;;;15.49;100.00;94315.19;5071198;28;20208;-62
2022/07/10 02:13:53;;;;;;;11.73;10.52;;;;;;;15.48;100.00;94301.59;5076752;22;20197;-62
2022/07/10 02:16:19;;;;;;;14.38;10.35;;;;;;;15.52;100.00;94312.28;5049497;28;20571;-63
2022/07/10 02:18:44;;;;;;;11.55;10.45;;;;;;;15.52;100.00;94309.72;5050153;28;20281;-63
2022/07/10 02:21:10;;;;;;;13.43;11.02;;;;;;;15.46;100.00;94308.63;5051302;28;20198;-64
2022/07/10 02:23:36;;;;;;;11.70;10.25;;;;;;;15.42;100.00;94303.97;5058110;22;20774;-64
2022/07/10 02:26:02;;;;;;;12.40;11.18;;;;;;;15.43;100.00;94301.28;5051067;28;20186;-62
2022/07/10 02:28:29;;;;;;;12.55;10.68;;;;;;;15.41;100.00;94303.19;5050934;28;20205;-62
2022/07/10 02:30:54;;;;;;;10.88;9.88;;;;;;;15.43;100.00;94300.50;5054401;28;20190;-60
2022/07/10 02:33:20;;;;;;;12.25;10.25;;;;;;;15.46;100.00;94298.38;5055225;28;20255;-61
2022/07/10 02:35:45;;;;;;;12.38;10.18;;;;;;;15.51;100.00;94305.59;5054677;28;20243;-63
2022/07/10 02:38:11;;;;;;;11.52;10.38;;;;;;;15.44;100.00;94310.56;5054763;28;20667;-59
2022/07/10 02:40:36;;;;;;;12.25;10.93;;;;;;;15.37;100.00;94309.59;5054430;28;20248;-62
2022/07/10 02:43:01;;;;;;;11.43;10.23;;;;;;;15.37;100.00;94307.03;5054681;28;20239;-62
2022/07/10 02:45:27;;;;;;;12.32;11.13;;;;;;;15.32;100.00;94308.50;5036599;28;20204;-62
2022/07/10 02:47:52;;;;;;;11.63;10.52;;;;;;;15.32;100.00;94314.44;5054477;28;20255;-62
2022/07/10 02:50:18;;;;;;;11.40;10.30;;;;;;;15.41;100.00;94322.88;5054497;28;20255;-63
2022/07/10 02:52:43;;;;;;;11.93;10.80;;;;;;;15.33;100.00;94316.03;5054562;28;20212;-59
2022/07/10 02:55:09;;;;;;;11.82;10.60;;;;;;;15.26;100.00;94314.31;5054317;28;20189;-62
2022/07/10 02:57:34;;;;;;;11.23;10.02;;;;;;;15.32;100.00;94321.31;5053989;28;20205;-63
2022/07/10 03:00:00;;;;;;;14.95;10.85;;;;;;;15.35;100.00;94318.44;5036311;28;20189;-61
2022/07/10 03:02:26;;;;;;;10.75;9.70;;;;;;;15.41;100.00;94315.97;5036384;28;20213;-59
2022/07/10 03:04:52;;;;;;;14.57;10.93;;;;;;;15.46;100.00;94325.75;5036109;28;20189;-59
2022/07/10 03:07:17;;;;;;;11.82;10.30;;;;;;;15.43;100.00;94321.75;5053946;28;20227;-61
2022/07/10 03:09:43;;;;;;;11.57;10.48;;;;;;;15.47;100.00;94323.06;5054044;28;20180;-63
2022/07/10 03:12:08;;;;;;;12.02;10.18;;;;;;;15.39;100.00;94323.03;5053870;28;20589;-61
2022/07/10 03:14:33;;;;;;;11.55;10.45;;;;;;;15.35;100.00;94321.00;5053968;28;20178;-63
2022/07/10 03:16:59;;;;;;;12.07;10.95;;;;;;;15.40;100.00;94331.53;5053787;28;20237;-63
2022/07/10 03:19:24;;;;;;;11.52;10.10;;;;;;;15.38;100.00;94334.25;5053917;28;20177;-64
2022/07/10 03:21:50;;;;;;;10.77;9.68;;;;;;;15.37;100.00;94337.00;5053581;28;20229;-61
2022/07/10 03:24:16;;;;;;;12.17;10.20;;;;;;;15.40;100.00;94340.00;5053961;28;20186;-63
2022/07/10 03:26:41;;;;;;;16.08;11.70;;;;;;;15.44;100.00;94343.06;5035641;28;20217;-63
2022/07/10 03:29:06;;;;;;;11.52;10.10;;;;;;;15.47;100.00;94342.75;5035784;28;20197;-61
2022/07/10 03:31:32;;;;;;;12.50;10.02;;;;;;;15.46;100.00;94336.00;5053414;28;20205;-60
2022/07/10 03:33:57;;;;;;;11.13;10.07;;;;;;;15.48;100.00;94341.78;5053476;28;20624;-59
2022/07/10 03:36:23;;;;;;;11.67;10.20;;;;;;;15.47;100.00;94345.31;5053456;28;20255;-59
2022/07/10 03:38:48;;;;;;;13.10;10.45;;;;;;;15.55;100.00;94337.59;5053668;28;20192;-59
2022/07/10 03:41:14;;;;;;;13.57;9.75;;;;;;;15.56;100.00;94336.59;5035436;28;20206;-62
2022/07/10 03:43:39;;;;;;;13.35;11.65;;;;;;;15.54;100.00;94336.78;5019165;28;20193;-62
2022/07/10 03:46:05;;;;;;;11.70;10.50;;;;;;;15.57;100.00;94333.09;5035313;28;20682;-62
2022/07/10 03:48:32;;;;;;;14.73;13.23;;;;;;;15.57;100.00;94327.97;5053259;28;20264;-62
2022/07/10 03:50:58;;;;;;;12.30;10.98;;;;;;;15.59;100.00;94329.41;5053019;28;20213;-61
2022/07/10 03:53:24;;;;;;;10.65;9.60;;;;;;;15.60;100.00;94331.00;5035246;28;20198;-62
2022/07/10 03:55:49;;;;;;;11.30;10.10;;;;;;;15.57;100.00;94320.28;5035006;28;20181;-62
2022/07/10 03:58:14;;;;;;;11.40;10.05;;;;;;;15.53;100.00;94321.59;5052745;28;20801;-64
2022/07/10 04:00:42;;;;;;;11.30;10.20;;;;;;;15.55;100.00;94327.34;5052770;28;20663;-61
2022/07/10 04:03:07;;;;;;;11.35;9.75;;;;;;;15.53;100.00;94319.81;5053143;28;20225;-60
2022/07/10 04:05:33;;;;;;;13.68;11.45;;;;;;;15.61;100.00;94318.97;5052775;28;20667;-59
2022/07/10 04:08:00;;;;;;;15.85;13.45;;;;;;;15.59;100.00;94316.59;5052824;28;20228;-59
2022/07/10 04:10:27;;;;;;;11.00;9.90;;;;;;;15.60;100.00;94317.38;5052634;28;20177;-59
2022/07/10 04:12:52;;;;;;;13.85;10.35;;;;;;;15.62;100.00;94315.44;5034824;28;20224;-60
2022/07/10 04:15:19;;;;;;;11.48;10.32;;;;;;;15.63;100.00;94317.84;5052611;28;20173;-60
2022/07/10 04:17:44;;;;;;;12.18;10.95;;;;;;;15.61;100.00;94319.78;5052746;28;20236;-62
2022/07/10 04:20:10;;;;;;;14.50;10.15;;;;;;;15.63;100.00;94314.47;5052626;28;20182;-61
2022/07/10 04:22:36;;;;;;;12.55;10.13;;;;;;;15.69;100.00;94311.25;5052666;28;20303;-59
2022/07/10 04:25:03;;;;;;;12.32;9.80;;;;;;;15.73;100.00;94315.06;5052465;28;20189;-61
2022/07/10 04:27:28;;;;;;;14.07;10.35;;;;;;;15.76;100.00;94310.41;5052546;28;20218;-62
2022/07/10 04:29:54;;;;;;;14.40;10.23;;;;;;;15.72;100.00;94306.56;5052472;28;20725;-63
2022/07/10 04:32:19;;;;;;;10.05;9.05;;;;;;;15.75;100.00;94311.38;5052487;28;20213;-59
2022/07/10 04:34:45;;;;;;;12.43;10.25;;;;;;;15.79;100.00;94312.63;5034552;28;20192;-62
2022/07/10 04:37:10;;;;;;;13.65;10.18;;;;;;;15.82;100.00;94314.03;5052402;28;20558;-60
2022/07/10 04:39:37;;;;;;;11.48;9.55;;;;;;;15.81;100.00;94318.38;5052262;28;20260;-60
2022/07/10 04:42:04;;;;;;;11.23;9.63;;;;;;;15.88;100.00;94313.34;5052133;28;20210;-60
2022/07/10 04:44:30;;;;;;;12.82;10.45;;;;;;;15.95;100.00;94316.84;5052196;28;20272;-59
2022/07/10 04:46:55;;;;;;;13.82;10.15;;;;;;;15.91;100.00;94315.59;5052100;28;20304;-60
2022/07/10 04:49:21;;;;;;;11.82;9.75;;;;;;;15.92;100.00;94322.31;5034160;28;20220;-61
2022/07/10 04:51:46;;;;;;;13.50;9.30;;;;;;;16.00;100.00;94319.69;5051556;28;20225;-60
2022/07/10 04:54:12;;;;;;;11.75;9.43;;;;;;;16.03;100.00;94319.34;5052076;28;20587;-60
2022/07/10 04:56:37;;;;;;;10.07;9.07;;;;;;;16.07;100.00;94320.63;5051914;28;20210;-64
2022/07/10 04:59:03;;;;;;;11.48;9.70;;;;;;;16.09;100.00;94321.25;5052029;28;20679;-63
2022/07/10 05:01:28;;;;;;;17.20;9.20;;;;;;;16.13;100.00;94325.06;5033974;28;20209;-62
2022/07/10 05:03:54;;;;;;;16.77;10.98;;;;;;;16.20;100.00;94320.81;5051990;28;20559;-62
2022/07/10 05:06:19;;;;;;;9.60;8.57;;;;;;;16.22;100.00;94326.56;5058701;22;20680;-59
2022/07/10 05:08:45;;;;;;;10.73;9.05;;;;;;;16.24;100.00;94319.50;5051896;28;20768;-63
2022/07/10 05:11:11;;;;;;;10.25;8.88;;;;;;;16.33;100.00;94331.31;5051786;28;20190;-59
2022/07/10 05:13:36;;;;;;;12.05;8.40;;;;;;;16.46;100.00;94334.06;5051765;28;20189;-62
2022/07/10 05:16:03;;;;;;;10.05;9.05;;;;;;;16.43;100.00;94334.44;5051805;28;20217;-64
2022/07/10 05:18:28;;;;;;;10.38;8.10;;;;;;;16.44;100.00;94327.56;5034151;28;20665;-63
2022/07/10 05:20:54;;;;;;;9.75;8.38;;;;;;;16.43;100.00;94334.44;5051466;28;20683;-63
2022/07/10 05:23:19;;;;;;;12.90;7.72;;;;;;;16.41;100.00;94318.41;5051751;28;20726;-59
2022/07/10 05:25:45;;;;;;;8.65;7.35;;;;;;;16.44;100.00;94323.19;5051709;28;20186;-60
2022/07/10 05:28:12;;;;;;;8.80;7.97;;;;;;;16.54;100.00;94334.03;5051682;28;20222;-62
2022/07/10 05:30:38;;;;;;;8.85;7.97;;;;;;;16.53;100.00;94322.19;5033669;28;20222;-61
2022/07/10 05:33:03;;;;;;;8.98;7.97;;;;;;;16.56;100.00;94333.91;5051480;28;20217;-62
2022/07/10 05:35:29;;;;;;;10.05;8.50;;;;;;;16.61;100.00;94334.97;5051469;28;20247;-62
2022/07/10 05:37:55;;;;;;;10.23;7.78;;;;;;;16.62;100.00;94330.63;5051830;28;20207;-61
2022/07/10 05:40:20;;;;;;;9.63;8.27;;;;;;;16.63;100.00;94322.75;5051593;28;20194;-61
2022/07/10 05:42:46;;;;;;;12.40;8.52;;;;;;;16.70;100.00;94331.31;5051913;28;20209;-62
2022/07/10 05:45:11;;;;;;;9.27;8.38;;;;;;;16.71;100.00;94332.94;5051463;28;20193;-62
2022/07/10 05:47:37;;;;;;;9.02;7.70;;;;;;;16.74;100.00;94326.66;5051559;28;20264;-62
2022/07/10 05:50:03;;;;;;;9.25;8.25;;;;;;;16.84;100.00;94321.28;5033550;28;20229;-59
2022/07/10 05:52:29;;;;;;;10.50;8.43;;;;;;;16.82;100.00;94336.06;5051523;28;20201;-61
2022/07/10 05:54:56;;;;;;;9.52;8.52;;;;;;;16.97;100.00;94334.31;5051273;28;20255;-61
2022/07/10 05:57:22;;;;;;;11.13;8.65;;;;;;;17.12;100.00;94340.22;5051127;28;20210;-62
2022/07/10 05:59:47;;;;;;;15.48;8.43;;;;;;;17.25;100.00;94353.28;5033020;28;20650;-62
2022/07/10 06:02:13;;;;;;;8.80;7.53;;;;;;;17.33;100.00;94355.75;5051515;28;20251;-62
2022/07/10 06:04:39;;;;;;;7.88;7.07;;;;;;;17.35;100.00;94364.09;5053065;28;20197;-61
2022/07/10 06:07:04;;;;;;;10.85;6.63;;;;;;;17.42;100.00;94354.66;5037015;28;20226;-63
2022/07/10 06:09:30;;;;;;;7.82;7.07;;;;;;;17.66;100.00;94349.25;5054898;28;20220;-63
2022/07/10 06:11:55;;;;;;;12.73;6.90;;;;;;;17.69;100.00;94392.63;5037139;28;20197;-63
2022/07/10 06:14:21;;;;;;;7.05;6.10;;;;;;;17.65;100.00;94419.66;5055030;28;20239;-63
2022/07/10 06:16:46;;;;;;;7.85;6.38;;;;;;;17.73;100.00;94390.47;5036827;28;20213;-60
2022/07/10 06:19:12;;;;;;;11.07;6.38;;;;;;;17.82;100.00;94381.69;5054744;28;20698;-60
2022/07/10 06:21:37;;;;;;;6.65;5.82;;;;;;;17.86;100.00;94380.34;5054928;28;20662;-64
2022/07/10 06:24:03;;;;;;;7.20;5.88;;;;;;;17.97;100.00;94382.47;5054764;28;20275;-63
2022/07/10 06:26:28;;;;;;;9.57;5.75;;;;;;;17.93;100.00;94397.47;5054835;28;20209;-63
2022/07/10 06:28:54;;;;;;;6.15;4.75;;;;;;;17.78;100.00;94401.00;5054645;28;20213;-62
2022/07/10 06:31:19;;;;;;;6.75;5.47;;;;;;;17.76;100.00;94378.06;5054767;28;20292;-63
2022/07/10 06:33:45;;;;;;;8.05;6.43;;;;;;;17.98;100.00;94363.47;5036532;28;20578;-61
2022/07/10 06:36:12;;;;;;;7.20;5.75;;;;;;;18.08;100.00;94376.84;5054623;28;20181;-60
2022/07/10 06:38:37;;;;;;;6.57;5.57;;;;;;;18.10;100.00;94383.38;5054547;28;20200;-62
2022/07/10 06:41:03;;;;;;;6.55;5.20;;;;;;;18.13;100.00;94388.19;5036470;28;20706;-65
2022/07/10 06:43:29;;;;;;;5.80;5.30;;;;;;;18.17;100.00;94402.28;5036310;28;20186;-63
2022/07/10 06:45:55;;;;;;;10.65;6.38;;;;;;;18.23;100.00;94383.53;5036548;28;20189;-65
2022/07/10 06:48:21;;;;;;;6.90;5.28;;;;;;;18.26;100.00;94370.28;5054380;28;20312;-63
2022/07/10 06:50:47;;;;;;;6.20;5.60;;;;;;;18.50;100.00;94360.66;5054552;28;20189;-62
2022/07/10 06:53:12;;;;;;;8.68;4.88;;;;;;;18.50;100.00;94402.66;5054149;28;20761;-62
2022/07/10 06:55:38;;;;;;;10.27;5.68;;;;;;;18.70;100.00;94377.88;5054018;28;20217;-63
2022/07/10 06:58:03;;;;;;;7.20;4.88;;;;;;;18.77;100.00;94403.66;5036065;28;20221;-63
2022/07/10 07:00:29;;;;;;;8.05;4.82;;;;;;;18.67;100.00;94398.03;5054071;28;20182;-60
2022/07/10 07:02:55;;;;;;;7.00;5.15;;;;;;;18.82;100.00;94394.41;5053886;28;20217;-63
2022/07/10 07:05:21;;;;;;;5.70;4.80;;;;;;;18.96;100.00;94387.56;5054036;28;20660;-65
2022/07/10 07:07:46;;;;;;;5.50;4.63;;;;;;;19.08;100.00;94419.56;5036081;28;20714;-60
2022/07/10 07:10:12;;;;;;;7.22;4.72;;;;;;;19.10;100.00;94404.72;5036016;28;20247;-59
2022/07/10 07:12:38;;;;;;;5.15;4.65;;;;;;;18.93;100.00;94409.34;5036205;28;20205;-60
2022/07/10 07:15:06;;;;;;;4.85;4.22;;;;;;;18.92;100.00;94401.81;5053466;28;20217;-64
2022/07/10 07:17:35;;;;;;;5.45;4.65;;;;;;;18.91;100.00;94403.59;5035491;28;20209;-62
2022/07/10 07:25:29;;;;;;;9.10;5.47;;;;;;;19.06;100.00;94401.72;5061677;22;20331;-59
2022/07/10 07:27:55;;;;;;;4.95;4.45;;;;;;;19.29;100.00;94404.03;5052592;28;20304;-60
2022/07/10 07:30:20;;;;;;;7.38;4.38;;;;;;;19.22;100.00;94429.78;5035521;28;20288;-60
2022/07/10 07:32:47;;;;;;;8.20;4.45;;;;;;;19.27;100.00;94437.75;5067675;22;20283;-60
2022/07/10 07:35:16;;;;;;;5.57;4.40;;;;;;;19.32;100.00;94408.84;5053372;28;20181;-59
2022/07/10 07:37:44;;;;;;;5.57;4.57;;;;;;;19.43;100.00;94421.25;5053132;28;20632;-62
2022/07/10 07:40:22;;;;;;;4.88;3.97;;;;;;;19.58;100.00;94378.06;5053279;28;20192;-61
2022/07/10 07:42:51;;;;;;;6.70;4.82;;;;;;;19.79;100.00;94408.94;5053221;28;20228;-63
2022/07/10 07:45:17;;;;;;;6.57;4.45;;;;;;;19.77;100.00;94423.81;5053396;28;20272;-59
2022/07/10 07:48:03;;;;;;;5.05;4.63;;;;;;;19.79;100.00;94397.81;5053232;28;20706;-60
2022/07/10 07:50:33;;;;;;;5.95;4.70;;;;;;;20.15;100.00;94402.72;5052767;28;20231;-65
2022/07/10 07:53:01;;;;;;;6.65;4.90;;;;;;;20.47;100.00;94402.03;5035200;28;20209;-61
2022/07/10 07:55:28;;;;;;;6.78;4.95;;;;;;;20.29;100.00;94463.75;5053128;28;20193;-65
2022/07/10 07:57:55;;;;;;;6.38;4.70;;;;;;;20.47;100.00;94445.94;5035300;28;20275;-63
2022/07/10 08:00:23;;;;;;;9.30;6.70;;;;;;;20.56;100.00;94435.22;5053047;28;20209;-63
2022/07/10 08:02:53;;;;;;;6.72;4.97;;;;;;;20.50;100.00;94430.06;5034884;28;20213;-63
2022/07/10 08:05:19;;;;;;;6.50;4.53;;;;;;;20.45;100.00;94435.78;5052934;28;20185;-62
2022/07/10 08:07:53;;;;;;;4.47;4.07;;;;;;;20.49;100.00;94452.50;5052487;28;20226;-62
2022/07/10 08:10:21;;;;;;;8.73;4.63;;;;;;;20.34;100.00;94441.50;5052705;28;20181;-61
2022/07/10 08:12:47;;;;;;;6.50;4.47;;;;;;;20.38;100.00;94457.44;5052885;28;20201;-62
2022/07/10 08:15:16;;;;;;;7.90;4.93;;;;;;;20.46;100.00;94470.19;5052558;28;20216;-62
2022/07/10 08:17:41;;;;;;;8.05;4.40;;;;;;;20.23;100.00;94459.34;5034747;28;20221;-64
2022/07/10 08:20:11;;;;;;;4.53;4.10;;;;;;;20.23;100.00;94423.22;5052554;28;20642;-63
2022/07/10 08:22:36;;;;;;;7.20;4.47;;;;;;;20.49;100.00;94501.56;5052097;28;20718;-62
2022/07/10 08:25:02;;;;;;;7.32;3.85;;;;;;;20.39;99.89;94502.91;5052285;28;20204;-63
2022/07/10 08:27:28;;;;;;;7.20;4.15;;;;;;;20.43;100.00;94481.69;5051343;28;20283;-64
2022/07/10 08:29:53;;;;;;;5.88;4.10;;;;;;;20.52;100.00;94464.22;5034469;28;20272;-65
2022/07/10 08:32:18;;;;;;;8.68;4.10;;;;;;;20.92;100.00;94486.56;5052463;28;20201;-65
2022/07/10 08:34:46;;;;;;;5.78;4.85;;;;;;;21.21;100.00;94481.03;5034218;28;20357;-65
2022/07/10 08:37:11;;;;;;;9.13;4.13;;;;;;;21.58;100.00;94467.50;5034204;28;20213;-62
2022/07/10 08:39:37;;;;;;;9.98;5.93;;;;;;;21.36;97.96;94535.16;5052481;28;20190;-64
2022/07/10 08:42:04;;;;;;;4.07;3.70;;;;;;;21.01;98.40;94506.06;5052002;28;20687;-64
2022/07/10 08:44:30;;;;;;;5.78;4.70;;;;;;;21.20;98.82;94494.97;5051963;28;20574;-63
2022/07/10 08:46:56;;;;;;;6.50;3.80;;;;;;;21.39;84.51;94551.09;5051925;28;20224;-59
2022/07/10 08:49:28;;;;;;;5.00;3.95;;;;;;;21.77;81.15;94528.78;5052191;28;20663;-64
2022/07/10 08:52:03;;;;;;;6.75;4.00;;;;;;;21.65;76.18;94594.31;5034267;28;20678;-62
2022/07/10 08:54:30;;;;;;;6.32;4.38;;;;;;;21.58;75.03;94583.13;5033387;28;20201;-63
2022/07/10 08:57:00;;;;;;;3.17;2.92;;;;;;;21.66;72.93;94616.59;5051983;28;20206;-65
2022/07/10 08:59:26;;;;;;;4.32;3.47;;;;;;;21.68;74.99;94568.00;5033908;28;20178;-65
2022/07/10 09:01:53;;;;;;;11.15;3.88;;;;;;;21.96;77.74;94503.13;5051747;28;20278;-63
2022/07/10 09:04:20;;;;;;;3.65;3.28;;;;;;;22.29;76.82;94517.56;5051680;28;20264;-63
2022/07/10 09:06:46;;;;;;;3.30;3.10;;;;;;;22.56;73.69;94570.09;5051598;28;20209;-64
2022/07/10 09:09:11;;;;;;;4.30;3.10;;;;;;;22.41;71.92;94593.66;5057220;22;20290;-63
2022/07/10 09:11:42;;;;;;;5.85;3.10;;;;;;;22.30;71.65;94583.13;5051456;28;20343;-64
2022/07/10 09:14:11;;;;;;;5.75;3.42;;;;;;;22.52;71.45;94574.09;5051636;28;20186;-63
2022/07/10 09:16:39;;;;;;;7.22;3.83;;;;;;;22.43;71.06;94559.75;5051354;28;20209;-59
2022/07/10 09:19:19;;;;;;;5.18;3.42;;;;;;;22.67;73.09;94514.22;5051367;28;20281;-61
2022/07/10 09:21:49;;;;;;;3.70;3.40;;;;;;;23.03;72.60;94522.19;5051624;28;20310;-63
2022/07/10 09:24:21;;;;;;;3.70;2.95;;;;;;;22.63;68.44;94609.75;5051525;28;20186;-63
2022/07/10 09:27:08;;;;;;;4.60;3.25;;;;;;;22.49;68.61;94584.84;5051455;28;20212;-62
2022/07/10 09:29:48;;;;;;;3.53;3.08;;;;;;;22.77;68.82;94571.59;5051565;28;20638;-60
2022/07/10 09:32:16;;;;;;;4.50;3.65;;;;;;;22.87;67.85;94598.69;5051459;28;20205;-61
2022/07/10 09:34:44;;;;;;;7.78;4.18;;;;;;;22.94;66.93;94599.47;5050140;28;20276;-65
2022/07/10 09:37:18;;;;;;;7.68;4.53;;;;;;;23.12;68.82;94546.91;5051360;28;20741;-65
2022/07/10 09:39:55;;;;;;;4.78;3.95;;;;;;;23.06;66.40;94597.81;5063830;23;20669;-64
2022/07/10 09:42:29;;;;;;;4.13;3.03;;;;;;;23.68;66.95;94571.09;5075460;28;20204;-64
2022/07/10 09:45:13;;;;;;;8.02;4.10;;;;;;;23.19;66.41;94586.59;5075428;28;20208;-66
2022/07/10 09:48:00;;;;;;;3.65;2.97;;;;;;;23.67;66.04;94579.09;5075419;28;20231;-63
2022/07/10 09:50:31;;;;;;;3.55;3.25;;;;;;;23.19;64.06;94600.31;5076042;28;20295;-65
2022/07/10 09:53:12;;;;;;;6.70;3.47;;;;;;;23.40;66.09;94549.13;5057149;28;20216;-64
2022/07/10 09:55:38;;;;;;;5.90;3.88;;;;;;;23.16;65.76;94543.69;5075985;28;20189;-64
2022/07/10 09:58:08;;;;;;;4.65;3.90;;;;;;;22.83;67.07;94503.38;5075265;28;20223;-59
2022/07/10 10:00:36;;;;;;;7.03;3.35;;;;;;;23.19;70.02;94436.91;5075477;28;20200;-63
2022/07/10 10:03:03;;;;;;;4.25;3.50;;;;;;;23.78;65.87;94544.63;5075400;28;20232;-62
2022/07/10 10:05:43;;;;;;;4.57;2.95;;;;;;;24.42;66.87;94526.81;5075255;28;20271;-64
2022/07/10 10:08:28;;;;;;;4.97;2.88;;;;;;;24.39;64.00;94588.84;5074837;28;20243;-65
2022/07/10 10:10:56;;;;;;;8.63;3.70;;;;;;;24.90;61.89;94621.34;5056970;28;20231;-64
2022/07/10 10:13:27;;;;;;;9.75;2.97;;;;;;;24.92;61.72;94613.31;5074682;28;20711;-65
2022/07/10 10:15:53;;;;;;;3.42;2.90;;;;;;;25.27;61.30;94603.81;5075239;28;20189;-66
2022/07/10 10:18:21;;;;;;;4.13;2.95;;;;;;;25.80;60.68;94614.31;5074651;28;20716;-61
2022/07/10 10:20:47;;;;;;;4.97;3.05;;;;;;;25.18;58.16;94652.00;5075024;28;20265;-61
2022/07/10 10:23:17;;;;;;;3.97;2.58;;;;;;;24.85;57.31;94672.41;5074511;28;20245;-60
2022/07/10 10:25:43;;;;;;;5.63;2.58;;;;;;;24.37;59.12;94593.47;5074696;28;20193;-64
2022/07/10 10:28:10;;;;;;;5.68;2.97;;;;;;;23.63;59.96;94564.94;5074629;28;20645;-63
2022/07/10 10:30:38;;;;;;;2.60;2.40;;;;;;;23.36;61.30;94528.00;5074896;28;20275;-63
2022/07/10 10:33:40;;;;;;;6.70;3.17;;;;;;;23.72;64.09;94463.22;5074671;28;20205;-66
2022/07/10 10:36:06;;;;;;;4.20;2.60;;;;;;;24.58;60.57;94548.88;5056450;28;20204;-65
2022/07/10 10:38:51;;;;;;;2.63;2.42;;;;;;;24.05;58.21;94622.16;5074526;28;20675;-59
2022/07/10 10:41:27;;;;;;;3.45;2.42;;;;;;;23.61;60.53;94543.59;5074462;28;20220;-66
2022/07/10 10:44:08;;;;;;;4.03;2.72;;;;;;;23.29;63.20;94483.13;5056292;28;20192;-60
2022/07/10 10:46:35;;;;;;;2.50;2.30;;;;;;;23.35;62.46;94498.66;5074398;28;20254;-66
2022/07/10 10:49:06;;;;;;;3.33;2.78;;;;;;;23.11;62.78;94496.03;5056263;28;20667;-63
2022/07/10 10:52:03;;;;;;;5.78;2.85;;;;;;;23.15;63.05;94482.41;5077486;22;20221;-61
2022/07/10 10:54:31;;;;;;;4.22;2.95;;;;;;;23.19;63.69;94464.66;5054212;28;20197;-62
2022/07/10 10:57:13;;;;;;;3.50;2.75;;;;;;;23.15;63.67;94459.06;5054193;28;20714;-60
2022/07/10 10:59:49;;;;;;;2.58;2.38;;;;;;;23.48;66.51;94390.56;5054143;28;20192;-63
2022/07/10 11:02:29;;;;;;;4.85;2.72;;;;;;;23.40;64.70;94448.72;5053525;28;20619;-65
2022/07/10 11:05:19;;;;;;;4.32;2.42;;;;;;;23.20;64.60;94448.88;5053777;28;20200;-61
2022/07/10 11:07:54;;;;;;;4.88;2.50;;;;;;;23.02;62.95;94477.34;5053597;28;20253;-60
2022/07/10 11:10:26;;;;;;;2.85;2.45;;;;;;;23.03;61.68;94517.03;5054186;28;20224;-63
2022/07/10 11:13:04;;;;;;;4.13;2.22;;;;;;;23.05;63.66;94453.56;5060619;22;20232;-61
2022/07/10 11:15:32;;;;;;;6.43;2.60;;;;;;;23.38;64.61;94427.41;5053867;28;20213;-61
2022/07/10 11:18:07;;;;;;;2.50;2.30;;;;;;;23.67;62.19;94502.00;5053656;28;20233;-60
2022/07/10 11:20:38;;;;;;;4.82;2.75;;;;;;;23.88;59.58;94556.13;5053867;28;20177;-63
2022/07/10 11:23:34;;;;;;;2.65;2.20;;;;;;;23.68;61.32;94498.41;5053740;28;20213;-64
2022/07/10 11:26:11;;;;;;;2.53;2.25;;;;;;;23.38;61.18;94507.84;5053674;28;20564;-62
2022/07/10 11:28:51;;;;;;;2.45;2.13;;;;;;;23.30;61.03;94510.66;5053657;28;20205;-65
2022/07/10 11:31:22;;;;;;;4.35;2.30;;;;;;;23.04;61.63;94485.72;5035494;28;20362;-64